Time;durP1;ratioP1;P1;durP2;ratioP2;P2;SDS_P1;SDS_P2;PMS_P1;PMS_P2;Temp;Humidity;BMP_temperature;BMP_pressure;BME280_temperature;BME280_humidity;BME280_pressure;Samples;Min_cycle;Max_cycle;Signal;HPM_P1;HPM_P2
2024/04/19 00:00:42;;;;;;;11.18;2.25;;;8.40;99.90;;;;;;5454973;26;19995;-90
2024/04/19 00:03:07;;;;;;;7.05;2.65;;;8.90;99.90;;;;;;5454891;26;20014;-90
2024/04/19 00:05:33;;;;;;;3.53;2.03;;;8.30;99.90;;;;;;5454405;26;19994;-87
2024/04/19 00:07:58;;;;;;;8.05;2.05;;;8.30;99.90;;;;;;5454131;26;20018;-88
2024/04/19 00:10:25;;;;;;;9.02;2.85;;;8.30;99.90;;;;;;5454276;26;19995;-88
2024/04/19 00:12:51;;;;;;;9.35;2.75;;;8.30;99.90;;;;;;5454072;26;20338;-89
2024/04/19 00:15:16;;;;;;;11.75;2.42;;;8.20;99.90;;;;;;5454205;26;19995;-89
2024/04/19 00:17:42;;;;;;;5.47;2.10;;;8.30;99.90;;;;;;5454552;26;20013;-89
2024/04/19 00:20:07;;;;;;;4.25;1.70;;;8.30;99.90;;;;;;5454396;26;20014;-87
2024/04/19 00:22:33;;;;;;;4.20;1.85;;;8.30;99.90;;;;;;5453586;26;20067;-90
2024/04/19 00:24:58;;;;;;;4.15;2.25;;;8.30;99.90;;;;;;5470089;26;20519;-88
2024/04/19 00:27:24;;;;;;;5.60;1.67;;;8.20;99.90;;;;;;5454968;26;19999;-87
2024/04/19 00:29:50;;;;;;;6.85;1.70;;;8.20;99.90;;;;;;5454241;26;20012;-88
2024/04/19 00:32:15;;;;;;;9.40;2.05;;;8.30;99.90;;;;;;5454175;26;19998;-89
2024/04/19 00:34:41;;;;;;;11.68;2.42;;;8.20;99.90;;;;;;5453421;26;19999;-89
2024/04/19 00:37:06;;;;;;;7.70;2.20;;;8.30;99.90;;;;;;5453979;26;20389;-89
2024/04/19 00:39:32;;;;;;;6.55;2.22;;;8.30;99.90;;;;;;5453625;26;20027;-88
2024/04/19 00:41:57;;;;;;;6.30;2.15;;;8.30;99.90;;;;;;5453584;26;20011;-88
2024/04/19 00:44:23;;;;;;;4.90;2.03;;;8.20;99.90;;;;;;5454255;26;19999;-88
2024/04/19 00:46:48;;;;;;;4.53;1.80;;;8.20;99.90;;;;;;5454282;26;20007;-88
2024/04/19 00:49:14;;;;;;;3.05;1.30;;;8.20;99.90;;;;;;5456863;26;19995;-88
2024/04/19 00:51:40;;;;;;;6.20;1.35;;;8.10;99.90;;;;;;5468983;26;20013;-87
2024/04/19 00:54:06;;;;;;;7.32;1.50;;;8.10;99.90;;;;;;5457644;26;20031;-88
2024/04/19 00:56:32;;;;;;;3.50;1.42;;;8.20;99.90;;;;;;5457104;26;20003;-89
2024/04/19 00:58:57;;;;;;;4.10;1.70;;;8.10;99.90;;;;;;5458047;26;20455;-87
2024/04/19 01:01:23;;;;;;;5.13;1.85;;;8.10;99.90;;;;;;5457582;26;20462;-88
2024/04/19 01:03:49;;;;;;;7.68;1.80;;;8.10;99.90;;;;;;5457099;26;20014;-87
2024/04/19 01:06:14;;;;;;;4.20;1.50;;;8.10;99.90;;;;;;5457634;26;20086;-87
2024/04/19 01:08:40;;;;;;;8.18;1.58;;;8.20;99.90;;;;;;5457691;26;19999;-89
2024/04/19 01:11:06;;;;;;;6.00;1.50;;;8.10;99.90;;;;;;5457083;26;20067;-87
2024/04/19 01:13:31;;;;;;;2.33;1.90;;;8.20;99.90;;;;;;5456835;26;20353;-88
2024/04/19 01:15:57;;;;;;;3.20;1.58;;;8.10;99.90;;;;;;5457425;26;20464;-88
2024/04/19 01:18:22;;;;;;;9.68;2.25;;;8.20;99.90;;;;;;5456812;26;20007;-87
2024/04/19 01:20:48;;;;;;;7.60;2.10;;;8.20;99.90;;;;;;5457080;26;20003;-86
2024/04/19 01:23:17;;;;;;;8.00;1.98;;;8.20;99.90;;;;;;5457073;26;19995;-88
2024/04/19 01:25:43;;;;;;;5.35;2.00;;;8.20;99.90;;;;;;5457260;26;20010;-88
2024/04/19 01:28:10;;;;;;;9.20;2.05;;;8.20;99.90;;;;;;5456736;26;20007;-87
2024/04/19 01:30:42;;;;;;;5.25;1.88;;;8.30;99.90;;;;;;5456429;26;19999;-88
2024/04/19 01:33:08;;;;;;;7.10;1.95;;;8.20;99.90;;;;;;5457233;26;20320;-91
2024/04/19 01:35:33;;;;;;;4.30;2.25;;;8.20;99.90;;;;;;5456834;26;20013;-90
2024/04/19 01:37:59;;;;;;;4.38;1.70;;;8.20;99.90;;;;;;5456534;26;20350;-90
2024/04/19 01:40:24;;;;;;;4.85;2.40;;;8.20;99.90;;;;;;5457226;26;20328;-87
2024/04/19 01:42:50;;;;;;;3.63;1.90;;;8.20;99.90;;;;;;5472404;26;20013;-88
2024/04/19 01:45:16;;;;;;;7.18;2.65;;;8.30;99.90;;;;;;5471865;26;20002;-90
2024/04/19 01:47:41;;;;;;;9.60;2.20;;;8.20;99.90;;;;;;5456624;26;19995;-91
2024/04/19 01:50:07;;;;;;;6.05;1.95;;;8.20;99.90;;;;;;5457106;26;20338;-89
2024/04/19 01:52:33;;;;;;;11.10;2.30;;;8.20;99.90;;;;;;5456389;26;20076;-89
2024/04/19 01:54:59;;;;;;;3.88;2.20;;;8.70;99.90;;;;;;5456628;26;20003;-90
2024/04/19 01:57:24;;;;;;;9.43;3.35;;;8.30;99.90;;;;;;5456717;26;20442;-90
2024/04/19 01:59:50;;;;;;;4.82;2.30;;;8.30;99.90;;;;;;5455233;26;20079;-88
2024/04/19 02:02:15;;;;;;;5.53;2.80;;;8.30;99.90;;;;;;5467013;26;19995;-87
2024/04/19 02:04:41;;;;;;;7.95;2.50;;;8.20;99.90;;;;;;5460730;26;20003;-89
2024/04/19 02:07:07;;;;;;;7.70;2.17;;;8.30;99.90;;;;;;5468082;26;20023;-87
2024/04/19 02:09:34;;;;;;;7.25;2.88;;;8.30;99.90;;;;;;5468368;26;20074;-87
2024/04/19 02:11:59;;;;;;;6.40;2.83;;;8.30;99.90;;;;;;5470012;26;20019;-87
2024/04/19 02:14:25;;;;;;;9.88;2.50;;;8.30;99.90;;;;;;5462401;26;20010;-89
2024/04/19 02:16:51;;;;;;;4.65;2.33;;;8.30;99.90;;;;;;5460897;26;19999;-90
2024/04/19 02:19:16;;;;;;;10.40;2.65;;;8.20;99.90;;;;;;5456238;26;20327;-88
2024/04/19 02:21:42;;;;;;;7.65;3.25;;;8.60;99.90;;;;;;5456029;26;19999;-88
2024/04/19 02:24:08;;;;;;;4.05;2.72;;;8.20;99.90;;;;;;5456480;26;20075;-88
2024/04/19 02:26:34;;;;;;;4.35;2.90;;;9.10;99.90;;;;;;5456320;26;20326;-88
2024/04/19 02:31:47;;;;;;;5.25;2.40;;;8.30;99.90;;;;;;5456229;26;20035;-89
2024/04/19 02:34:12;;;;;;;4.05;2.58;;;8.30;99.90;;;;;;5455663;26;19998;-90
2024/04/19 02:36:38;;;;;;;7.57;2.05;;;8.30;99.90;;;;;;5456305;26;20017;-89
2024/04/19 02:39:03;;;;;;;7.25;2.35;;;8.40;99.90;;;;;;5474369;26;19991;-89
2024/04/19 02:41:29;;;;;;;10.27;2.60;;;8.40;99.90;;;;;;5458480;26;20018;-89
2024/04/19 02:43:54;;;;;;;5.57;2.50;;;8.40;99.90;;;;;;5456201;26;19999;-89
2024/04/19 02:46:20;;;;;;;10.13;2.63;;;8.40;99.90;;;;;;5456251;26;20511;-90
2024/04/19 02:48:46;;;;;;;6.30;2.63;;;8.40;99.90;;;;;;5455752;26;19999;-90
2024/04/19 02:51:11;;;;;;;9.65;3.20;;;8.40;99.90;;;;;;5456230;26;20334;-91
2024/04/19 02:53:37;;;;;;;8.80;2.47;;;8.50;99.90;;;;;;5455666;26;20013;-89
2024/04/19 02:56:03;;;;;;;4.00;2.42;;;8.40;99.90;;;;;;5455380;26;20009;-89
2024/04/19 02:58:29;;;;;;;6.32;3.22;;;8.50;99.90;;;;;;5455796;26;20450;-89
2024/04/19 03:00:54;;;;;;;6.25;2.75;;;8.50;99.90;;;;;;5467905;26;20013;-89
2024/04/19 03:03:20;;;;;;;8.30;3.30;;;8.50;99.90;;;;;;5456877;26;20392;-89
2024/04/19 03:05:46;;;;;;;6.47;2.95;;;8.50;99.90;;;;;;5455564;26;20018;-90
2024/04/19 03:08:12;;;;;;;5.05;3.20;;;8.50;99.90;;;;;;5455475;26;20446;-89
2024/04/19 03:10:38;;;;;;;3.15;2.85;;;8.50;99.90;;;;;;5453791;26;20006;-89
2024/04/19 03:13:09;;;;;;;6.55;2.58;;;9.30;99.90;;;;;;5455511;26;19995;-89
2024/04/19 03:15:35;;;;;;;;;;;8.50;99.90;;;;;;5456037;26;19995;-88
2024/04/19 03:18:00;;;;;;;3.00;2.30;;;8.50;99.90;;;;;;5454828;26;19993;-89
2024/04/19 03:20:26;;;;;;;7.70;2.60;;;8.50;99.90;;;;;;5455487;26;20014;-89
2024/04/19 03:22:51;;;;;;;4.35;3.00;;;8.60;99.90;;;;;;5455114;26;20002;-89
2024/04/19 03:25:17;;;;;;;5.75;3.00;;;8.50;99.90;;;;;;5455146;26;20006;-89
2024/04/19 03:27:43;;;;;;;6.32;2.55;;;8.60;99.90;;;;;;5455231;26;20010;-89
2024/04/19 03:30:08;;;;;;;4.88;2.88;;;8.60;99.90;;;;;;5455280;26;19995;-90
2024/04/19 03:32:34;;;;;;;3.88;2.60;;;8.60;99.90;;;;;;5462621;26;20335;-89
2024/04/19 03:34:59;;;;;;;5.55;3.20;;;8.60;99.90;;;;;;5458960;26;20007;-90
2024/04/19 03:37:25;;;;;;;6.90;3.40;;;8.60;99.90;;;;;;5455501;26;20075;-89
2024/04/19 03:39:51;;;;;;;5.53;4.10;;;8.70;99.90;;;;;;5455389;26;20009;-89
2024/04/19 03:42:20;;;;;;;5.43;4.60;;;8.70;99.90;;;;;;5455236;26;20078;-89
2024/04/19 03:47:29;;;;;;;8.77;5.40;;;8.70;99.90;;;;;;5455198;26;20013;-89
2024/04/19 03:49:55;;;;;;;6.93;5.38;;;8.80;99.90;;;;;;5454837;26;20002;-89
2024/04/19 03:52:21;;;;;;;9.05;5.95;;;8.80;99.90;;;;;;5455016;26;19995;-89
2024/04/19 03:54:46;;;;;;;8.40;5.57;;;8.80;99.90;;;;;;5454934;26;20075;-89
2024/04/19 03:57:12;;;;;;;9.05;6.05;;;8.90;99.90;;;;;;5455063;26;20338;-90
2024/04/19 03:59:39;;;;;;;12.55;6.95;;;9.10;99.90;;;;;;5454526;26;20002;-90
2024/04/19 04:02:04;;;;;;;12.73;7.10;;;9.40;99.90;;;;;;5454782;26;20075;-89
2024/04/19 04:04:30;;;;;;;13.73;8.18;;;8.90;99.90;;;;;;5454616;26;20458;-89
2024/04/19 04:06:55;;;;;;;10.52;7.35;;;8.90;99.90;;;;;;5454553;26;19999;-89
2024/04/19 04:09:21;;;;;;;15.48;8.95;;;9.00;99.90;;;;;;5454936;26;20009;-88
2024/04/19 04:11:46;;;;;;;18.35;8.30;;;9.00;99.90;;;;;;5454637;26;20003;-90
2024/04/19 04:14:12;;;;;;;16.15;9.30;;;9.00;99.90;;;;;;5454428;26;19995;-90
2024/04/19 04:16:37;;;;;;;15.10;9.15;;;9.00;99.90;;;;;;5454407;26;20005;-89
2024/04/19 04:19:04;;;;;;;19.02;9.43;;;9.00;99.90;;;;;;5464157;26;19999;-89
2024/04/19 04:21:29;;;;;;;20.02;9.55;;;9.10;99.90;;;;;;5458865;26;20005;-90
2024/04/19 04:23:55;;;;;;;20.17;9.32;;;9.00;99.90;;;;;;5462548;26;19999;-89
2024/04/19 04:26:21;;;;;;;25.67;10.02;;;9.10;99.90;;;;;;5477526;26;19986;-89
2024/04/19 04:28:47;;;;;;;21.67;10.35;;;9.10;99.90;;;;;;5466473;26;19999;-89
2024/04/19 04:31:13;;;;;;;14.10;9.30;;;9.10;99.90;;;;;;5462207;26;19999;-90
2024/04/19 04:33:38;;;;;;;15.88;8.45;;;9.10;99.90;;;;;;5461245;26;20010;-89
2024/04/19 04:36:04;;;;;;;23.67;10.23;;;9.20;99.90;;;;;;5461726;26;20018;-89
2024/04/19 04:38:29;;;;;;;20.02;9.52;;;9.20;99.90;;;;;;5461843;26;19998;-90
2024/04/19 04:40:55;;;;;;;19.85;10.05;;;9.20;99.90;;;;;;5461088;26;20012;-89
2024/04/19 04:43:20;;;;;;;24.20;10.02;;;9.20;99.90;;;;;;5461577;26;20018;-89
2024/04/19 04:45:46;;;;;;;17.20;8.75;;;9.20;99.90;;;;;;5461677;26;19998;-89
2024/04/19 04:48:12;;;;;;;26.00;10.13;;;9.30;99.90;;;;;;5461298;26;20002;-89
2024/04/19 04:50:38;;;;;;;16.55;8.63;;;9.30;99.90;;;;;;5461912;26;19999;-89
2024/04/19 04:53:03;;;;;;;25.10;8.48;;;9.30;99.90;;;;;;5461339;26;20003;-89
2024/04/19 04:55:32;;;;;;;19.38;7.82;;;9.40;99.90;;;;;;5461978;26;20014;-90
2024/04/19 04:57:59;;;;;;;24.85;7.93;;;9.40;99.90;;;;;;5461527;26;20006;-90
2024/04/19 05:00:28;;;;;;;19.25;8.23;;;9.40;99.90;;;;;;5461372;26;20014;-89
2024/04/19 05:02:56;;;;;;;16.50;7.18;;;9.40;99.90;;;;;;5460893;26;19999;-90
2024/04/19 05:05:21;;;;;;;15.55;8.13;;;9.40;99.90;;;;;;5461154;26;20010;-89
2024/04/19 05:07:47;;;;;;;17.90;6.70;;;9.50;99.90;;;;;;5461127;26;19994;-89
2024/04/19 05:10:12;;;;;;;16.88;7.22;;;10.40;99.90;;;;;;5461105;26;19999;-89
2024/04/19 05:12:38;;;;;;;16.17;7.55;;;9.50;99.90;;;;;;5460847;26;20002;-89
2024/04/19 05:15:04;;;;;;;20.02;7.45;;;9.50;99.90;;;;;;5460857;26;20470;-89
2024/04/19 05:17:29;;;;;;;18.40;5.95;;;9.50;99.90;;;;;;5460732;26;20006;-90
2024/04/19 05:19:55;;;;;;;21.00;6.93;;;9.50;99.90;;;;;;5473285;26;20013;-89
2024/04/19 05:22:21;;;;;;;16.08;6.05;;;9.60;99.90;;;;;;5464791;26;19994;-89
2024/04/19 05:24:46;;;;;;;19.00;5.97;;;9.50;99.90;;;;;;5460292;26;20011;-88
2024/04/19 05:27:12;;;;;;;9.48;5.68;;;9.60;99.90;;;;;;5460761;26;20026;-89
2024/04/19 05:29:37;;;;;;;17.20;5.05;;;9.60;99.90;;;;;;5460843;26;19999;-89
2024/04/19 05:32:03;;;;;;;15.13;4.85;;;9.60;99.90;;;;;;5460569;26;20075;-89
2024/04/19 05:34:29;;;;;;;19.58;6.15;;;9.60;99.90;;;;;;5457375;26;20072;-89
2024/04/19 05:36:54;;;;;;;20.73;5.07;;;9.60;99.90;;;;;;5458622;26;20338;-89
2024/04/19 05:39:20;;;;;;;17.83;5.07;;;9.60;99.90;;;;;;5463265;26;20007;-90
2024/04/19 05:41:45;;;;;;;12.73;5.18;;;9.60;99.90;;;;;;5456673;26;19999;-89
2024/04/19 05:44:18;;;;;;;12.65;5.45;;;9.60;99.90;;;;;;5456273;26;19999;-89
2024/04/19 05:46:44;;;;;;;14.68;4.40;;;9.70;99.90;;;;;;5456715;26;20003;-88
2024/04/19 05:49:10;;;;;;;12.68;3.80;;;9.70;99.90;;;;;;5456467;26;20044;-89
2024/04/19 05:51:35;;;;;;;15.80;4.43;;;9.70;99.90;;;;;;5456083;26;20439;-87
2024/04/19 05:54:01;;;;;;;14.93;3.80;;;9.70;99.90;;;;;;5456704;26;19995;-89
2024/04/19 05:56:28;;;;;;;11.88;2.95;;;9.70;99.90;;;;;;5456331;26;20010;-90
2024/04/19 05:58:54;;;;;;;6.28;3.10;;;9.70;99.90;;;;;;5456114;26;20328;-89
2024/04/19 06:01:20;;;;;;;10.40;3.28;;;10.20;99.90;;;;;;5456550;26;20077;-89
2024/04/19 06:03:46;;;;;;;16.45;3.10;;;9.70;99.90;;;;;;5456345;26;20008;-89
2024/04/19 06:06:12;;;;;;;9.85;3.60;;;9.70;99.90;;;;;;5456277;26;20080;-89
2024/04/19 06:08:37;;;;;;;16.10;4.70;;;9.60;99.90;;;;;;5457200;26;20003;-89
2024/04/19 06:11:03;;;;;;;20.75;4.68;;;9.60;99.90;;;;;;5456611;26;20002;-89
2024/04/19 06:13:28;;;;;;;18.15;4.28;;;9.70;99.90;;;;;;5466564;26;20071;-89
2024/04/19 06:15:54;;;;;;;12.10;4.13;;;9.70;99.90;;;;;;5456432;26;20010;-90
2024/04/19 06:18:19;;;;;;;10.05;3.60;;;9.70;99.90;;;;;;5455583;26;19998;-89
2024/04/19 06:20:45;;;;;;;14.90;3.75;;;9.30;99.90;;;;;;5455695;26;20539;-90
2024/04/19 06:23:11;;;;;;;16.77;4.03;;;9.80;99.90;;;;;;5455829;26;20067;-89
2024/04/19 06:25:36;;;;;;;14.93;3.15;;;9.80;99.90;;;;;;5455886;26;20011;-89
2024/04/19 06:28:02;;;;;;;13.65;3.30;;;9.80;99.90;;;;;;5455401;26;19999;-89
2024/04/19 06:30:27;;;;;;;12.57;4.30;;;9.80;99.90;;;;;;5455977;26;20014;-89
2024/04/19 06:32:53;;;;;;;14.85;3.92;;;9.80;99.90;;;;;;5455826;26;20002;-89
2024/04/19 06:35:19;;;;;;;12.07;3.80;;;9.80;99.90;;;;;;5455665;26;20039;-89
2024/04/19 06:37:46;;;;;;;20.85;4.35;;;9.70;99.90;;;;;;5455537;26;19999;-88
2024/04/19 06:40:12;;;;;;;24.55;4.68;;;9.70;99.90;;;;;;5456616;26;20006;-90
2024/04/19 06:42:38;;;;;;;15.73;3.45;;;9.70;99.90;;;;;;5455675;26;19999;-89
2024/04/19 06:45:04;;;;;;;14.25;3.40;;;10.50;99.90;;;;;;5454860;26;19994;-89
2024/04/19 06:47:32;;;;;;;15.35;4.82;;;9.80;99.90;;;;;;5455169;26;20028;-89
2024/04/19 06:49:57;;;;;;;17.38;3.25;;;9.80;99.90;;;;;;5456357;26;20005;-88
2024/04/19 06:52:23;;;;;;;12.35;4.57;;;9.80;99.90;;;;;;5456023;26;20002;-88
2024/04/19 06:54:48;;;;;;;12.82;3.38;;;9.90;99.90;;;;;;5455325;26;19998;-88
2024/04/19 06:57:14;;;;;;;21.08;4.28;;;9.80;99.90;;;;;;5468211;26;19998;-91
2024/04/19 06:59:43;;;;;;;6.25;2.90;;;10.50;99.90;;;;;;5456026;26;20457;-88
2024/04/19 07:02:08;;;;;;;12.43;3.17;;;9.90;99.90;;;;;;5455378;26;19994;-87
2024/04/19 07:04:34;;;;;;;15.25;3.92;;;9.80;99.90;;;;;;5469498;26;19995;-88
2024/04/19 07:06:59;;;;;;;7.50;1.90;;;9.80;99.90;;;;;;5463773;26;20007;-88
2024/04/19 07:09:25;;;;;;;7.78;1.40;;;9.80;99.90;;;;;;5456679;26;20010;-89
2024/04/19 07:11:50;;;;;;;9.43;1.42;;;9.60;99.90;;;;;;5455833;26;19994;-89
2024/04/19 07:14:16;;;;;;;4.88;1.48;;;9.60;99.90;;;;;;5455684;26;20446;-88
2024/04/19 07:16:42;;;;;;;15.95;2.28;;;9.50;99.90;;;;;;5455221;26;20442;-89
2024/04/19 07:19:07;;;;;;;6.90;1.85;;;9.50;99.90;;;;;;5455325;26;20423;-89
2024/04/19 07:21:33;;;;;;;17.33;3.45;;;9.50;99.90;;;;;;5455247;26;20015;-89
2024/04/19 07:23:58;;;;;;;12.43;2.92;;;9.60;99.90;;;;;;5455172;26;20002;-89
2024/04/19 07:26:24;;;;;;;11.82;2.85;;;9.60;99.90;;;;;;5455281;26;20006;-89
2024/04/19 07:28:50;;;;;;;17.75;4.18;;;10.40;99.90;;;;;;5455157;26;19999;-89
2024/04/19 07:31:16;;;;;;;11.55;4.07;;;9.70;99.90;;;;;;5454887;26;20455;-88
2024/04/19 07:33:41;;;;;;;11.00;2.75;;;9.80;99.90;;;;;;5455091;26;20447;-89
2024/04/19 07:36:07;;;;;;;16.80;3.25;;;9.80;99.90;;;;;;5454963;26;19995;-89
2024/04/19 07:38:35;;;;;;;12.13;3.25;;;9.90;99.90;;;;;;5454384;26;20013;-88
2024/04/19 07:41:04;;;;;;;15.30;2.95;;;9.90;99.90;;;;;;5455035;26;20007;-88
2024/04/19 07:43:29;;;;;;;18.83;3.28;;;10.00;99.90;;;;;;5454579;26;20010;-89
2024/04/19 07:45:55;;;;;;;9.57;2.50;;;10.00;99.90;;;;;;5454709;26;20015;-88
2024/04/19 07:48:21;;;;;;;5.97;1.52;;;10.00;99.90;;;;;;5454740;26;19995;-87
2024/04/19 07:50:46;;;;;;;2.10;0.80;;;9.70;99.90;;;;;;5453936;26;20003;-88
2024/04/19 07:53:12;;;;;;;4.10;1.38;;;9.40;99.90;;;;;;5454513;26;20068;-88
2024/04/19 07:55:39;;;;;;;3.60;1.00;;;9.10;99.90;;;;;;5454188;26;20455;-88
2024/04/19 07:58:05;;;;;;;6.25;1.33;;;8.90;99.90;;;;;;5457150;26;19999;-88
2024/04/19 08:00:30;;;;;;;4.80;1.10;;;8.80;99.90;;;;;;5454414;26;19995;-87
2024/04/19 08:02:56;;;;;;;5.93;1.50;;;8.90;99.90;;;;;;5454361;26;20000;-88
2024/04/19 08:05:23;;;;;;;5.57;1.75;;;8.90;99.90;;;;;;5453992;26;20378;-88
2024/04/19 08:07:50;;;;;;;7.22;1.45;;;8.80;99.90;;;;;;5454341;26;20011;-88
2024/04/19 08:10:16;;;;;;;3.70;1.45;;;8.90;99.90;;;;;;5454413;26;20002;-89
2024/04/19 08:12:44;;;;;;;4.63;1.67;;;9.00;99.90;;;;;;5453982;26;20007;-90
2024/04/19 08:15:10;;;;;;;8.65;2.08;;;9.00;99.90;;;;;;5466346;26;20013;-89
2024/04/19 08:17:36;;;;;;;10.48;2.67;;;9.20;99.90;;;;;;5455288;26;20035;-88
2024/04/19 08:20:01;;;;;;;15.88;2.53;;;9.20;99.90;;;;;;5454327;26;20002;-91
2024/04/19 08:22:27;;;;;;;8.82;2.15;;;9.30;99.90;;;;;;5454428;26;19999;-88
2024/04/19 08:24:54;;;;;;;11.18;2.45;;;9.40;99.90;;;;;;5454068;26;20014;-88
2024/04/19 08:27:20;;;;;;;18.35;2.83;;;10.50;99.90;;;;;;5454426;26;20026;-89
2024/04/19 08:29:45;;;;;;;11.75;3.03;;;9.60;99.90;;;;;;5453986;26;20002;-90
2024/04/19 08:32:11;;;;;;;14.55;3.08;;;9.70;99.90;;;;;;5454769;26;19995;-90
2024/04/19 08:34:36;;;;;;;14.18;3.08;;;9.80;99.90;;;;;;5454089;26;19999;-91
2024/04/19 08:37:02;;;;;;;11.98;2.83;;;9.90;99.90;;;;;;5454136;26;19999;-91
2024/04/19 08:39:28;;;;;;;14.65;3.30;;;9.90;99.90;;;;;;5454147;26;20084;-89
2024/04/19 08:41:58;;;;;;;21.45;3.80;;;10.60;99.90;;;;;;5453941;26;19998;-89
2024/04/19 08:44:24;;;;;;;11.02;2.45;;;10.10;99.90;;;;;;5454531;26;20003;-88
2024/04/19 08:46:53;;;;;;;18.90;2.42;;;10.50;99.90;;;;;;5455765;26;20007;-89
2024/04/19 08:49:20;;;;;;;9.60;2.70;;;10.10;99.90;;;;;;5464779;26;20012;-89
2024/04/19 08:51:46;;;;;;;7.35;1.60;;;10.20;99.90;;;;;;5461628;26;19995;-91
2024/04/19 08:54:12;;;;;;;13.60;1.70;;;10.20;99.90;;;;;;5453707;26;19999;-90
2024/04/19 08:56:38;;;;;;;8.73;2.05;;;10.10;99.90;;;;;;5454849;26;20010;-89
2024/04/19 08:59:04;;;;;;;15.00;2.72;;;10.10;99.90;;;;;;5453625;26;20003;-91
2024/04/19 09:01:30;;;;;;;18.02;2.63;;;10.10;99.90;;;;;;5453272;26;20002;-90
2024/04/19 09:03:56;;;;;;;7.80;1.67;;;10.10;99.90;;;;;;5454243;26;20069;-90
2024/04/19 09:06:25;;;;;;;12.45;2.20;;;9.90;99.90;;;;;;5453918;26;20423;-90
2024/04/19 09:08:51;;;;;;;12.27;2.75;;;10.00;99.90;;;;;;5454992;26;20006;-91
2024/04/19 09:11:17;;;;;;;11.55;1.98;;;9.90;99.90;;;;;;5457710;26;20412;-89
2024/04/19 09:13:43;;;;;;;7.18;1.85;;;9.90;99.90;;;;;;5457045;26;20002;-91
2024/04/19 09:16:12;;;;;;;9.20;1.70;;;9.90;99.90;;;;;;5457419;26;19995;-90
2024/04/19 09:18:37;;;;;;;16.20;3.05;;;9.90;99.90;;;;;;5457012;26;20013;-90
2024/04/19 09:21:03;;;;;;;14.20;2.78;;;9.90;99.90;;;;;;5457734;26;20442;-90
2024/04/19 09:23:29;;;;;;;11.50;2.85;;;10.00;99.90;;;;;;5457186;26;19999;-90
2024/04/19 09:25:56;;;;;;;15.85;2.97;;;10.10;99.90;;;;;;5457019;26;20014;-90
2024/04/19 09:28:22;;;;;;;15.82;2.75;;;10.20;99.90;;;;;;5457551;26;20006;-91
2024/04/19 09:30:54;;;;;;;19.90;3.35;;;10.20;99.90;;;;;;5457494;26;20003;-90
2024/04/19 09:33:21;;;;;;;10.90;1.85;;;10.10;99.90;;;;;;5469923;26;20006;-90
2024/04/19 09:35:50;;;;;;;8.63;1.48;;;10.20;99.90;;;;;;5462533;26;20027;-90
2024/04/19 09:38:15;;;;;;;15.93;2.13;;;10.20;99.90;;;;;;5467980;26;19998;-91
2024/04/19 09:40:45;;;;;;;7.65;2.20;;;10.90;99.90;;;;;;5465578;26;20003;-91
2024/04/19 09:43:15;;;;;;;16.45;2.50;;;10.30;99.90;;;;;;5473422;26;19998;-89
2024/04/19 09:45:43;;;;;;;18.52;2.80;;;10.60;99.90;;;;;;5470408;26;19999;-89
2024/04/19 09:48:10;;;;;;;9.85;2.67;;;10.30;99.90;;;;;;5466727;26;19995;-89
2024/04/19 09:50:49;;;;;;;7.15;1.98;;;10.30;99.90;;;;;;5464986;26;20014;-88
2024/04/19 09:53:21;;;;;;;12.40;2.33;;;11.50;99.90;;;;;;5466299;26;19998;-91
2024/04/19 09:56:07;;;;;;;16.35;2.92;;;11.30;99.90;;;;;;5457294;26;20002;-88
2024/04/19 09:58:34;;;;;;;23.60;2.92;;;10.50;99.90;;;;;;5456332;26;19999;-88
2024/04/19 10:01:01;;;;;;;17.00;3.38;;;11.80;99.90;;;;;;5456971;26;20006;-89
2024/04/19 10:03:28;;;;;;;25.50;3.40;;;10.40;99.90;;;;;;5457968;26;20088;-91
2024/04/19 10:05:55;;;;;;;11.30;3.15;;;10.50;99.90;;;;;;5456201;26;20438;-91
2024/04/19 10:08:23;;;;;;;14.20;2.15;;;10.50;99.90;;;;;;5456782;26;20014;-89
2024/04/19 10:10:50;;;;;;;17.73;3.47;;;10.40;99.90;;;;;;5456878;26;20039;-90
2024/04/19 10:13:16;;;;;;;20.48;3.20;;;10.50;99.90;;;;;;5456363;26;19999;-90
2024/04/19 10:15:42;;;;;;;15.60;2.88;;;10.50;99.90;;;;;;5456917;26;20013;-92
2024/04/19 10:18:08;;;;;;;14.60;4.00;;;10.50;99.90;;;;;;5456358;26;20458;-90
2024/04/19 10:20:37;;;;;;;16.40;3.10;;;10.60;99.90;;;;;;5456196;26;20009;-88
2024/04/19 10:23:04;;;;;;;14.00;2.33;;;10.50;99.90;;;;;;5456693;26;20084;-90
2024/04/19 10:25:35;;;;;;;12.32;3.05;;;10.50;99.90;;;;;;5456239;26;20075;-91
2024/04/19 10:28:00;;;;;;;13.13;2.65;;;10.40;99.90;;;;;;5456928;26;20416;-88
2024/04/19 10:30:31;;;;;;;20.55;3.05;;;10.80;99.90;;;;;;5456751;26;20002;-90
2024/04/19 10:32:58;;;;;;;15.45;2.85;;;10.50;99.90;;;;;;5456594;26;19999;-90
2024/04/19 10:35:24;;;;;;;18.00;3.30;;;10.50;99.90;;;;;;5472581;26;20019;-91
2024/04/19 10:37:50;;;;;;;26.83;3.70;;;11.30;99.90;;;;;;5457921;26;20003;-90
2024/04/19 10:40:16;;;;;;;15.90;2.88;;;10.50;99.90;;;;;;5456779;26;19999;-89
2024/04/19 10:42:42;;;;;;;13.65;2.40;;;10.50;99.90;;;;;;5456369;26;20013;-90
2024/04/19 10:45:14;;;;;;;14.95;2.20;;;10.60;99.90;;;;;;5456179;26;19999;-89
2024/04/19 10:47:41;;;;;;;13.73;1.83;;;10.60;99.90;;;;;;5456037;26;19995;-90
2024/04/19 10:50:07;;;;;;;13.43;2.90;;;10.60;99.90;;;;;;5458660;26;20002;-89
2024/04/19 10:52:36;;;;;;;10.75;2.60;;;10.70;99.90;;;;;;5464329;26;20068;-90
2024/04/19 10:55:03;;;;;;;24.48;3.25;;;10.60;99.90;;;;;;5455490;26;19994;-90
2024/04/19 10:57:31;;;;;;;11.77;2.60;;;10.60;99.90;;;;;;5456399;26;20470;-90
2024/04/19 10:59:57;;;;;;;10.65;2.00;;;10.70;99.90;;;;;;5456014;26;19995;-89
2024/04/19 11:02:26;;;;;;;7.97;1.70;;;10.70;99.90;;;;;;5455649;26;20341;-90
2024/04/19 11:04:53;;;;;;;14.13;2.08;;;10.60;99.90;;;;;;5455560;26;20014;-88
2024/04/19 11:07:21;;;;;;;13.15;2.35;;;10.70;99.90;;;;;;5456226;26;20013;-85
2024/04/19 11:09:48;;;;;;;14.60;2.58;;;10.70;99.90;;;;;;5455619;26;20017;-89
2024/04/19 11:12:15;;;;;;;10.80;2.90;;;10.70;99.90;;;;;;5454920;26;20013;-82
2024/04/19 11:14:41;;;;;;;11.35;2.22;;;10.80;99.90;;;;;;5453769;26;19999;-86
2024/04/19 11:17:06;;;;;;;18.90;3.15;;;10.90;99.90;;;;;;5455287;26;20009;-86
2024/04/19 11:19:35;;;;;;;11.75;2.30;;;10.90;99.90;;;;;;5455480;26;20427;-87
2024/04/19 11:22:01;;;;;;;7.55;2.00;;;10.90;99.90;;;;;;5455652;26;20119;-87
2024/04/19 11:24:27;;;;;;;15.32;2.75;;;10.90;99.90;;;;;;5455769;26;19999;-86
2024/04/19 11:26:53;;;;;;;15.77;2.95;;;10.90;99.90;;;;;;5465577;26;19995;-87
2024/04/19 11:29:20;;;;;;;14.77;2.55;;;10.90;99.90;;;;;;5456817;26;20003;-87
2024/04/19 11:31:46;;;;;;;9.23;2.00;;;10.90;99.90;;;;;;5453525;26;20002;-87
2024/04/19 11:34:12;;;;;;;13.43;2.00;;;10.70;99.90;;;;;;5454512;26;20006;-87
2024/04/19 11:36:38;;;;;;;12.30;2.47;;;10.60;99.90;;;;;;5452802;26;20002;-84
2024/04/19 11:39:03;;;;;;;11.50;1.80;;;10.50;99.90;;;;;;5452183;26;20733;-84
2024/04/19 11:41:29;;;;;;;20.83;2.40;;;10.50;99.90;;;;;;5452346;26;20076;-84
2024/04/19 11:43:58;;;;;;;13.10;2.47;;;10.60;99.90;;;;;;5454198;26;20009;-85
2024/04/19 11:46:28;;;;;;;10.48;1.92;;;10.70;99.90;;;;;;5453032;26;20071;-85
2024/04/19 11:48:58;;;;;;;3.38;1.30;;;10.60;99.90;;;;;;5452979;26;20018;-84
2024/04/19 11:51:25;;;;;;;3.88;0.88;;;10.30;99.90;;;;;;5451604;26;20022;-87
2024/04/19 11:53:51;;;;;;;5.00;0.90;;;10.00;99.90;;;;;;5451279;26;19999;-85
2024/04/19 11:56:16;;;;;;;3.75;0.88;;;10.00;99.90;;;;;;5451545;26;20069;-85
2024/04/19 11:58:43;;;;;;;8.23;1.45;;;10.00;99.90;;;;;;5450175;26;20126;-84
2024/04/19 12:01:09;;;;;;;8.77;1.30;;;10.10;99.90;;;;;;5450496;26;19998;-85
2024/04/19 12:03:34;;;;;;;8.02;1.40;;;10.20;99.90;;;;;;5450732;26;20009;-83
2024/04/19 12:06:00;;;;;;;4.60;1.23;;;10.30;99.90;;;;;;5451926;26;20003;-86
2024/04/19 12:08:26;;;;;;;8.43;1.20;;;10.10;99.90;;;;;;5437489;26;20003;-89
2024/04/19 12:10:51;;;;;;;3.85;0.90;;;10.10;99.90;;;;;;5467059;26;19999;-90
2024/04/19 12:13:17;;;;;;;3.22;0.93;;;10.00;99.90;;;;;;5455414;26;20002;-90
2024/04/19 12:15:42;;;;;;;3.40;0.68;;;10.00;99.90;;;;;;5454280;26;19999;-89
2024/04/19 12:18:08;;;;;;;5.80;1.02;;;10.30;99.90;;;;;;5462214;26;20002;-88
2024/04/19 12:20:33;;;;;;;8.30;1.65;;;10.30;99.90;;;;;;5467050;26;20015;-89
2024/04/19 12:22:59;;;;;;;6.10;1.08;;;10.30;99.90;;;;;;5455695;26;19998;-90
2024/04/19 12:25:24;;;;;;;4.93;1.45;;;10.30;99.90;;;;;;5454912;26;20006;-91
2024/04/19 12:27:50;;;;;;;5.50;1.83;;;10.90;99.90;;;;;;5452675;26;20104;-89
2024/04/19 12:30:15;;;;;;;3.15;0.82;;;10.40;99.90;;;;;;5451493;26;20029;-89
2024/04/19 12:32:41;;;;;;;1.95;0.65;;;10.40;99.90;;;;;;5451214;26;19999;-91
2024/04/19 12:35:09;;;;;;;8.70;1.13;;;10.30;99.90;;;;;;5451593;26;20002;-89
2024/04/19 12:37:35;;;;;;;5.65;1.50;;;10.50;99.90;;;;;;5452986;26;20011;-89
2024/04/19 12:40:01;;;;;;;6.65;2.25;;;10.50;99.90;;;;;;5453109;26;19999;-90
2024/04/19 12:42:27;;;;;;;6.85;1.67;;;10.50;99.90;;;;;;5453077;26;20062;-89
2024/04/19 12:44:54;;;;;;;4.88;1.63;;;10.60;99.90;;;;;;5459680;26;20012;-89
2024/04/19 12:47:20;;;;;;;18.02;3.28;;;10.50;99.90;;;;;;5458812;26;20079;-91